createdAt,value
2019-04-16T00:02:56.985Z,6
2019-04-16T00:07:56.983Z,6
2019-04-16T00:12:56.993Z,6.1
2019-04-16T00:17:56.990Z,6.2
2019-04-16T00:22:57.003Z,6.2
2019-04-16T00:27:59.474Z,6.3
2019-04-16T00:32:57.006Z,6.3
2019-04-16T00:37:57.150Z,6.4
2019-04-16T00:42:57.006Z,6.5
2019-04-16T00:47:56.988Z,6.5
2019-04-16T00:52:57.020Z,6.5
2019-04-16T00:57:57.006Z,6.6
2019-04-16T01:02:56.997Z,6.6
2019-04-16T01:07:57.003Z,6.6
2019-04-16T01:12:57.018Z,6.6
2019-04-16T01:17:57.019Z,6.6
2019-04-16T01:22:57.035Z,6.6
2019-04-16T01:27:59.608Z,6.6
2019-04-16T01:32:57.016Z,6.6
2019-04-16T01:37:57.534Z,6.6
2019-04-16T01:42:57.030Z,6.6
2019-04-16T01:47:57.032Z,6.5
2019-04-16T01:52:57.040Z,6.5
2019-04-16T01:57:59.421Z,6.4
2019-04-16T02:02:57.067Z,6.3
2019-04-16T02:07:59.183Z,6.3
2019-04-16T02:12:57.041Z,6.3
2019-04-16T02:17:58.711Z,6.2
2019-04-16T02:22:57.053Z,6.2
2019-04-16T02:27:57.748Z,6.2
2019-04-16T02:32:57.065Z,6.1
2019-04-16T02:37:57.056Z,6.1
2019-04-16T02:43:03.906Z,6.1
2019-04-16T02:47:57.050Z,6
2019-04-16T02:52:57.060Z,6
2019-04-16T02:57:59.943Z,6
2019-04-16T03:02:57.087Z,5.9
2019-04-16T03:07:57.081Z,5.9
2019-04-16T03:12:57.052Z,5.8
2019-04-16T03:17:57.082Z,5.8
2019-04-16T03:22:57.062Z,5.7
2019-04-16T03:27:57.074Z,5.3
2019-04-16T03:32:57.078Z,5
2019-04-16T03:37:57.128Z,4.7
2019-04-16T03:42:59.248Z,4.4
2019-04-16T03:47:57.098Z,4.2
2019-04-16T03:52:57.077Z,4
2019-04-16T03:57:57.099Z,3.7
2019-04-16T04:02:57.051Z,3.6
2019-04-16T04:07:57.114Z,3.4
2019-04-16T04:12:57.094Z,3.2
2019-04-16T04:17:57.125Z,3.1
2019-04-16T04:22:57.843Z,3
2019-04-16T04:27:57.124Z,2.9
2019-04-16T04:32:57.125Z,2.8
2019-04-16T04:37:57.091Z,2.8
2019-04-16T04:42:57.558Z,2.7
2019-04-16T04:47:57.125Z,2.8
2019-04-16T04:52:57.117Z,2.8
2019-04-16T04:57:57.114Z,2.9
2019-04-16T05:02:57.127Z,3
2019-04-16T05:07:59.624Z,3.1
2019-04-16T05:12:57.131Z,3.2
2019-04-16T05:17:57.133Z,3.4
2019-04-16T05:22:58.049Z,3.5
2019-04-16T05:27:57.165Z,3.8
2019-04-16T05:32:57.152Z,3.9
2019-04-16T05:37:57.142Z,4.2
2019-04-16T05:42:58.774Z,4.4
2019-04-16T05:47:57.142Z,4.7
2019-04-16T05:52:57.146Z,5
2019-04-16T05:57:58.122Z,5.2
2019-04-16T06:02:57.147Z,5.5
2019-04-16T06:07:57.148Z,5.8
2019-04-16T06:12:57.172Z,6.2
2019-04-16T06:17:57.157Z,6.6
2019-04-16T06:23:00.552Z,6.9
2019-04-16T06:27:57.176Z,7.2
2019-04-16T06:32:57.171Z,7.4
2019-04-16T06:37:57.156Z,7.8
2019-04-16T06:42:57.153Z,8.1
2019-04-16T06:47:57.215Z,8.3
2019-04-16T06:52:57.178Z,8.6
2019-04-16T06:57:57.189Z,8.8
2019-04-16T07:03:02.374Z,9
2019-04-16T07:07:57.192Z,9.3
2019-04-16T07:12:57.202Z,9.3
2019-04-16T07:17:57.185Z,9.6
2019-04-16T07:22:57.191Z,9.8
2019-04-16T07:27:58.140Z,9.9
2019-04-16T07:33:00.364Z,10
2019-04-16T07:37:57.210Z,10.2
2019-04-16T07:42:58.852Z,10.4
2019-04-16T07:47:57.433Z,10.4
2019-04-16T07:52:57.215Z,10.7
2019-04-16T07:57:57.195Z,10.9
2019-04-16T08:02:57.211Z,11.1
2019-04-16T08:07:57.219Z,11.3
2019-04-16T08:13:00.444Z,11.6
2019-04-16T08:17:57.216Z,11.8
2019-04-16T08:22:57.238Z,11.9
2019-04-16T08:27:57.178Z,12.1
2019-04-16T08:32:57.235Z,12
2019-04-16T08:37:58.276Z,12.2
2019-04-16T08:42:58.243Z,12.5
2019-04-16T08:47:57.239Z,12.7
2019-04-16T08:52:57.188Z,12.8
2019-04-16T08:57:57.235Z,12.9
2019-04-16T09:02:58.614Z,12.9
2019-04-16T09:08:10.804Z,13.1
2019-04-16T09:13:03.651Z,13.2
2019-04-16T09:17:57.257Z,13.4
2019-04-16T09:22:58.875Z,13.4
2019-04-16T09:28:00.701Z,13.5
2019-04-16T09:33:00.125Z,13.8
2019-04-16T09:37:57.258Z,13.9
2019-04-16T09:42:57.266Z,14
2019-04-16T09:47:57.286Z,14.2
2019-04-16T09:52:57.282Z,14.2
2019-04-16T09:57:57.294Z,14.3
2019-04-16T10:02:57.276Z,14.4
2019-04-16T10:07:57.278Z,14.5
2019-04-16T10:12:57.272Z,14.6
2019-04-16T10:17:58.517Z,14.7
2019-04-16T10:22:57.302Z,14.9
2019-04-16T10:27:57.306Z,14.9
2019-04-16T10:32:57.249Z,15
2019-04-16T10:37:57.385Z,15.1
2019-04-16T10:42:57.274Z,15.3
2019-04-16T10:47:57.308Z,15.5
2019-04-16T10:52:57.344Z,15.6
2019-04-16T10:57:57.323Z,15.7
2019-04-16T11:02:57.271Z,15.7
2019-04-16T11:07:57.278Z,15.8
2019-04-16T11:12:57.313Z,16
2019-04-16T11:17:57.349Z,16.1
2019-04-16T11:22:57.326Z,16.3
2019-04-16T11:27:57.359Z,16.4
2019-04-16T11:32:57.297Z,16.6
2019-04-16T11:37:57.275Z,16.7
2019-04-16T11:42:57.326Z,16.6
2019-04-16T11:47:57.343Z,16.7
2019-04-16T11:52:58.458Z,16.7
2019-04-16T11:57:57.442Z,16.9
2019-04-16T12:02:57.290Z,17.1
2019-04-16T12:07:57.363Z,17.1
2019-04-16T12:12:57.373Z,17.1
2019-04-16T12:17:57.353Z,17.3
2019-04-16T12:22:57.353Z,17.2
2019-04-16T12:27:57.378Z,17.3
2019-04-16T12:32:57.389Z,17.4
2019-04-16T12:37:57.363Z,17.4
2019-04-16T12:42:57.373Z,17.4
2019-04-16T12:47:58.924Z,17.5
2019-04-16T12:52:57.364Z,17.6
2019-04-16T12:57:58.958Z,17.5
2019-04-16T13:02:57.362Z,17.6
2019-04-16T13:07:57.347Z,17.6
2019-04-16T13:12:57.377Z,17.6
2019-04-16T13:17:57.380Z,17.6
2019-04-16T13:22:57.368Z,17.7
2019-04-16T13:27:57.539Z,17.8
2019-04-16T13:32:57.337Z,17.9
2019-04-16T13:37:57.381Z,17.8
2019-04-16T13:42:57.380Z,18
2019-04-16T13:47:57.387Z,18
2019-04-16T13:52:57.395Z,18
2019-04-16T13:57:57.462Z,18
2019-04-16T14:02:57.479Z,17.9
2019-04-16T14:07:57.474Z,17.8
2019-04-16T14:12:57.495Z,17.9
2019-04-16T14:17:59.463Z,17.9
2019-04-16T14:22:57.482Z,17.8
2019-04-16T14:28:01.690Z,17.8
2019-04-16T14:33:00.230Z,17.7
2019-04-16T14:38:00.225Z,17.7
2019-04-16T14:43:00.252Z,17.8
2019-04-16T14:48:00.196Z,17.7
2019-04-16T14:53:00.534Z,17.7
2019-04-16T14:58:00.217Z,17.6
2019-04-16T15:03:00.233Z,17.6
2019-04-16T15:08:00.256Z,17.6
2019-04-16T15:13:00.258Z,17.5
2019-04-16T15:18:00.245Z,17.5
2019-04-16T15:23:00.238Z,17.4
2019-04-16T15:28:00.266Z,17.3
2019-04-16T15:33:04.903Z,17.3
2019-04-16T15:38:00.291Z,17.3
2019-04-16T15:43:00.273Z,17.2
2019-04-16T15:48:00.297Z,17.1
2019-04-16T15:53:00.248Z,17
2019-04-16T15:58:00.271Z,17
2019-04-16T16:03:00.272Z,16.9
2019-04-16T16:08:02.310Z,16.8
2019-04-16T16:13:00.274Z,16.7
2019-04-16T16:18:00.280Z,16.6
2019-04-16T16:23:00.290Z,16.5
2019-04-16T16:28:00.283Z,16.4
2019-04-16T16:33:00.307Z,16.4
2019-04-16T16:38:02.170Z,16.2
2019-04-16T16:43:06.398Z,16.2
2019-04-16T16:48:02.176Z,16
2019-04-16T16:53:02.194Z,15.9
2019-04-16T16:58:02.183Z,15.8
2019-04-16T17:03:02.189Z,15.7
2019-04-16T17:08:02.282Z,15.6
2019-04-16T17:13:02.313Z,15.4
2019-04-16T17:18:02.188Z,15.4
2019-04-16T17:23:02.208Z,16.1
2019-04-16T17:28:02.245Z,15.4
2019-04-16T17:33:02.204Z,15.1
2019-04-16T17:38:03.691Z,14.8
2019-04-16T17:43:02.232Z,14.6
2019-04-16T17:48:02.244Z,14.4
2019-04-16T17:53:02.204Z,14.2
2019-04-16T17:58:02.212Z,14.1
2019-04-16T18:03:04.028Z,13.9
2019-04-16T18:08:02.871Z,13.7
2019-04-16T18:13:02.187Z,13.5
2019-04-16T18:18:02.268Z,13.4
2019-04-16T18:23:02.262Z,13.3
2019-04-16T18:28:05.233Z,13.1
2019-04-16T18:33:05.284Z,13
2019-04-16T18:38:02.252Z,12.9
2019-04-16T18:43:02.276Z,12.8
2019-04-16T18:48:05.336Z,12.7
2019-04-16T18:53:02.275Z,12.6
2019-04-16T18:58:02.287Z,12.5
2019-04-16T19:03:02.282Z,12.4
2019-04-16T19:08:02.693Z,12.3
2019-04-16T19:13:02.379Z,12.2
2019-04-16T19:18:17.891Z,12.1
2019-04-16T19:23:02.307Z,12.1
2019-04-16T19:28:05.911Z,12
2019-04-16T19:33:02.363Z,11.9
2019-04-16T19:38:06.087Z,11.8
2019-04-16T19:43:03.532Z,11.6
2019-04-16T19:48:03.111Z,11.6
2019-04-16T19:53:03.652Z,11.5
2019-04-16T19:58:03.681Z,11.4
2019-04-16T20:03:03.293Z,11.3
2019-04-16T20:08:03.555Z,11.2
2019-04-16T20:13:03.683Z,11.2
2019-04-16T20:18:06.276Z,11.1
2019-04-16T20:23:03.860Z,11
2019-04-16T20:28:03.276Z,10.9
2019-04-16T20:33:03.404Z,10.8
2019-04-16T20:38:03.245Z,10.7
2019-04-16T20:43:03.160Z,10.5
2019-04-16T20:48:03.222Z,10.4
2019-04-16T20:53:07.757Z,10.2
2019-04-16T20:58:03.165Z,10
2019-04-16T21:03:03.791Z,10
2019-04-16T21:08:03.179Z,9.8
2019-04-16T21:13:03.206Z,9.8
2019-04-16T21:18:03.143Z,9.7
2019-04-16T21:23:03.533Z,9.7
2019-04-16T21:28:03.202Z,9.7
2019-04-16T21:33:03.179Z,9.5
2019-04-16T21:38:03.179Z,9.5
2019-04-16T21:43:06.193Z,9.4
2019-04-16T21:48:03.172Z,9.3
2019-04-16T21:53:03.491Z,9.3
2019-04-16T21:58:03.149Z,9.3
2019-04-16T22:03:03.479Z,9.3
2019-04-16T22:08:03.220Z,9.2
2019-04-16T22:13:03.166Z,9.2
2019-04-16T22:18:07.505Z,9.1
2019-04-16T22:23:03.225Z,9.1
2019-04-16T22:28:03.225Z,9.1
2019-04-16T22:33:06.362Z,9.1
2019-04-16T22:38:03.221Z,9.1
2019-04-16T22:43:06.144Z,9.2
2019-04-16T22:48:03.232Z,9.2
2019-04-16T22:53:03.593Z,9.2
2019-04-16T22:58:04.724Z,9.1
2019-04-16T23:03:03.238Z,9.1
2019-04-16T23:08:03.181Z,9.1
2019-04-16T23:13:03.239Z,9.1
2019-04-16T23:18:03.211Z,9.1
2019-04-16T23:23:03.220Z,9
2019-04-16T23:28:03.505Z,9
2019-04-16T23:33:03.417Z,9
2019-04-16T23:38:03.234Z,9
2019-04-16T23:43:03.234Z,8.9
2019-04-16T23:48:03.254Z,8.9
2019-04-16T23:53:03.728Z,9
2019-04-16T23:58:03.267Z,8.9
